sensor_id;sensor_type;location;lat;lon;timestamp;pressure;altitude;pressure_sealevel;temperature;humidity
23433;BME280;41331;45.412;10.992;2022-11-20T00:01:17;100187.06;;;8.76;100.00
23433;BME280;41331;45.412;10.992;2022-11-20T00:03:45;100172.22;;;8.65;100.00
23433;BME280;41331;45.412;10.992;2022-11-20T00:06:15;100179.09;;;8.71;100.00
23433;BME280;41331;45.412;10.992;2022-11-20T00:08:44;100180.19;;;8.79;100.00
23433;BME280;41331;45.412;10.992;2022-11-20T00:11:14;100192.34;;;8.64;100.00
23433;BME280;41331;45.412;10.992;2022-11-20T00:13:48;100188.50;;;8.56;100.00
23433;BME280;41331;45.412;10.992;2022-11-20T00:16:18;100187.72;;;8.56;100.00
23433;BME280;41331;45.412;10.992;2022-11-20T00:18:46;100184.66;;;8.57;100.00
23433;BME280;41331;45.412;10.992;2022-11-20T00:21:18;100187.09;;;8.59;100.00
23433;BME280;41331;45.412;10.992;2022-11-20T00:23:49;100188.69;;;8.51;100.00
23433;BME280;41331;45.412;10.992;2022-11-20T00:26:20;100196.81;;;8.51;100.00
23433;BME280;41331;45.412;10.992;2022-11-20T00:28:52;100196.66;;;8.56;100.00
23433;BME280;41331;45.412;10.992;2022-11-20T00:31:21;100191.88;;;8.53;100.00
23433;BME280;41331;45.412;10.992;2022-11-20T00:33:49;100194.25;;;8.46;100.00
23433;BME280;41331;45.412;10.992;2022-11-20T00:36:25;100206.69;;;8.47;100.00
23433;BME280;41331;45.412;10.992;2022-11-20T00:38:55;100199.19;;;8.36;100.00
23433;BME280;41331;45.412;10.992;2022-11-20T00:41:23;100214.22;;;8.50;100.00
23433;BME280;41331;45.412;10.992;2022-11-20T00:43:53;100207.66;;;8.43;100.00
23433;BME280;41331;45.412;10.992;2022-11-20T00:46:24;100216.88;;;8.33;100.00
23433;BME280;41331;45.412;10.992;2022-11-20T00:48:51;100216.41;;;8.31;100.00
23433;BME280;41331;45.412;10.992;2022-11-20T00:51:21;100218.16;;;8.27;100.00
23433;BME280;41331;45.412;10.992;2022-11-20T00:53:49;100220.28;;;8.39;99.42
23433;BME280;41331;45.412;10.992;2022-11-20T00:56:18;100218.00;;;8.23;100.00
23433;BME280;41331;45.412;10.992;2022-11-20T00:58:47;100212.75;;;8.18;99.98
23433;BME280;41331;45.412;10.992;2022-11-20T01:01:23;100210.03;;;8.18;100.00
23433;BME280;41331;45.412;10.992;2022-11-20T01:03:53;100215.75;;;8.17;100.00
23433;BME280;41331;45.412;10.992;2022-11-20T01:06:27;100215.75;;;8.17;99.86
23433;BME280;41331;45.412;10.992;2022-11-20T01:08:58;100216.53;;;8.17;99.89
23433;BME280;41331;45.412;10.992;2022-11-20T01:11:29;100225.16;;;8.19;100.00
23433;BME280;41331;45.412;10.992;2022-11-20T01:13:58;100225.78;;;8.16;100.00
23433;BME280;41331;45.412;10.992;2022-11-20T01:16:29;100218.75;;;8.07;100.00
23433;BME280;41331;45.412;10.992;2022-11-20T01:18:58;100227.53;;;8.03;100.00
23433;BME280;41331;45.412;10.992;2022-11-20T01:21:29;100226.72;;;8.03;100.00
23433;BME280;41331;45.412;10.992;2022-11-20T01:23:58;100229.28;;;7.99;100.00
23433;BME280;41331;45.412;10.992;2022-11-20T01:26:31;100216.34;;;7.96;100.00
23433;BME280;41331;45.412;10.992;2022-11-20T01:28:59;100225.44;;;7.92;100.00
23433;BME280;41331;45.412;10.992;2022-11-20T01:31:32;100225.59;;;7.95;100.00
23433;BME280;41331;45.412;10.992;2022-11-20T01:34:02;100226.22;;;7.84;100.00
23433;BME280;41331;45.412;10.992;2022-11-20T01:36:32;100227.81;;;7.85;100.00
23433;BME280;41331;45.412;10.992;2022-11-20T01:39:02;100234.03;;;7.85;100.00
23433;BME280;41331;45.412;10.992;2022-11-20T01:41:32;100225.28;;;7.88;100.00
23433;BME280;41331;45.412;10.992;2022-11-20T01:44:21;100220.00;;;7.92;100.00
23433;BME280;41331;45.412;10.992;2022-11-20T01:46:56;100227.34;;;7.91;100.00
23433;BME280;41331;45.412;10.992;2022-11-20T01:49:34;100226.84;;;7.81;100.00
23433;BME280;41331;45.412;10.992;2022-11-20T01:52:20;100228.78;;;7.89;100.00
23433;BME280;41331;45.412;10.992;2022-11-20T01:54:57;100223.19;;;7.85;100.00
23433;BME280;41331;45.412;10.992;2022-11-20T01:57:28;100228.28;;;7.87;100.00
23433;BME280;41331;45.412;10.992;2022-11-20T02:00:00;100234.34;;;7.84;100.00
23433;BME280;41331;45.412;10.992;2022-11-20T02:02:41;100233.56;;;7.83;100.00
23433;BME280;41331;45.412;10.992;2022-11-20T02:05:27;100231.94;;;7.82;100.00
23433;BME280;41331;45.412;10.992;2022-11-20T02:07:57;100231.78;;;7.78;100.00
23433;BME280;41331;45.412;10.992;2022-11-20T02:10:26;100233.19;;;7.76;100.00
23433;BME280;41331;45.412;10.992;2022-11-20T02:12:55;100233.34;;;7.71;100.00
23433;BME280;41331;45.412;10.992;2022-11-20T02:15:42;100223.94;;;7.68;100.00
23433;BME280;41331;45.412;10.992;2022-11-20T02:18:11;100219.31;;;7.77;100.00
23433;BME280;41331;45.412;10.992;2022-11-20T02:20:43;100225.53;;;7.69;100.00
23433;BME280;41331;45.412;10.992;2022-11-20T02:23:12;100230.88;;;7.52;100.00
23433;BME280;41331;45.412;10.992;2022-11-20T02:25:40;100228.94;;;7.44;100.00
23433;BME280;41331;45.412;10.992;2022-11-20T02:28:10;100231.78;;;7.39;100.00
23433;BME280;41331;45.412;10.992;2022-11-20T02:30:37;100235.44;;;7.34;100.00
23433;BME280;41331;45.412;10.992;2022-11-20T02:33:04;100225.47;;;7.21;100.00
23433;BME280;41331;45.412;10.992;2022-11-20T02:38:00;100216.38;;;7.17;100.00
23433;BME280;41331;45.412;10.992;2022-11-20T02:40:29;100223.84;;;7.11;100.00
23433;BME280;41331;45.412;10.992;2022-11-20T02:42:57;100223.97;;;7.06;100.00
23433;BME280;41331;45.412;10.992;2022-11-20T02:45:25;100239.28;;;7.11;100.00
23433;BME280;41331;45.412;10.992;2022-11-20T02:47:52;100239.28;;;7.11;100.00
23433;BME280;41331;45.412;10.992;2022-11-20T02:50:20;100238.81;;;7.17;100.00
23433;BME280;41331;45.412;10.992;2022-11-20T02:52:47;100232.84;;;7.29;100.00
23433;BME280;41331;45.412;10.992;2022-11-20T02:55:15;100232.19;;;7.23;100.00
23433;BME280;41331;45.412;10.992;2022-11-20T02:57:42;100228.69;;;7.23;100.00
23433;BME280;41331;45.412;10.992;2022-11-20T03:00:10;100222.81;;;7.30;100.00
23433;BME280;41331;45.412;10.992;2022-11-20T03:02:38;100237.09;;;7.21;100.00
23433;BME280;41331;45.412;10.992;2022-11-20T03:05:05;100234.13;;;7.32;100.00
23433;BME280;41331;45.412;10.992;2022-11-20T03:07:34;100215.78;;;6.97;100.00
23433;BME280;41331;45.412;10.992;2022-11-20T03:10:03;100223.91;;;6.97;100.00
23433;BME280;41331;45.412;10.992;2022-11-20T03:12:30;100229.09;;;6.85;100.00
23433;BME280;41331;45.412;10.992;2022-11-20T03:14:57;100225.09;;;6.83;100.00
23433;BME280;41331;45.412;10.992;2022-11-20T03:17:25;100231.00;;;6.85;100.00
23433;BME280;41331;45.412;10.992;2022-11-20T03:19:52;100230.06;;;6.89;100.00
23433;BME280;41331;45.412;10.992;2022-11-20T03:22:20;100235.97;;;6.91;100.00
23433;BME280;41331;45.412;10.992;2022-11-20T03:24:47;100230.06;;;6.89;100.00
23433;BME280;41331;45.412;10.992;2022-11-20T03:27:14;100224.47;;;6.86;100.00
23433;BME280;41331;45.412;10.992;2022-11-20T03:29:42;100229.44;;;6.92;100.00
23433;BME280;41331;45.412;10.992;2022-11-20T03:32:09;100238.25;;;6.98;100.00
23433;BME280;41331;45.412;10.992;2022-11-20T03:34:37;100240.47;;;6.96;100.00
23433;BME280;41331;45.412;10.992;2022-11-20T03:37:04;100246.13;;;7.08;100.00
23433;BME280;41331;45.412;10.992;2022-11-20T03:39:32;100238.59;;;7.05;100.00
23433;BME280;41331;45.412;10.992;2022-11-20T03:41:59;100241.00;;;7.07;100.00
23433;BME280;41331;45.412;10.992;2022-11-20T03:44:27;100245.19;;;6.90;100.00
23433;BME280;41331;45.412;10.992;2022-11-20T03:46:55;100251.28;;;6.96;99.68
23433;BME280;41331;45.412;10.992;2022-11-20T03:49:22;100252.66;;;6.85;100.00
23433;BME280;41331;45.412;10.992;2022-11-20T03:51:50;100247.72;;;6.87;100.00
23433;BME280;41331;45.412;10.992;2022-11-20T03:54:17;100259.56;;;6.77;100.00
23433;BME280;41331;45.412;10.992;2022-11-20T03:56:45;100270.59;;;6.58;100.00
23433;BME280;41331;45.412;10.992;2022-11-20T03:59:12;100267.38;;;6.56;100.00
23433;BME280;41331;45.412;10.992;2022-11-20T04:01:39;100270.75;;;6.62;100.00
23433;BME280;41331;45.412;10.992;2022-11-20T04:04:12;100274.13;;;6.45;100.00
23433;BME280;41331;45.412;10.992;2022-11-20T04:06:41;100280.53;;;6.35;100.00
23433;BME280;41331;45.412;10.992;2022-11-20T04:09:08;100282.75;;;6.33;100.00
23433;BME280;41331;45.412;10.992;2022-11-20T04:11:37;100284.06;;;6.22;100.00
23433;BME280;41331;45.412;10.992;2022-11-20T04:14:12;100291.56;;;6.25;100.00
23433;BME280;41331;45.412;10.992;2022-11-20T04:16:40;100288.38;;;6.23;100.00
23433;BME280;41331;45.412;10.992;2022-11-20T04:19:13;100292.38;;;6.12;100.00
23433;BME280;41331;45.412;10.992;2022-11-20T04:21:42;100287.28;;;6.24;100.00
23433;BME280;41331;45.412;10.992;2022-11-20T04:24:13;100283.56;;;6.20;100.00
23433;BME280;41331;45.412;10.992;2022-11-20T04:26:40;100286.47;;;6.10;100.00
23433;BME280;41331;45.412;10.992;2022-11-20T04:29:11;100283.78;;;6.10;100.00
23433;BME280;41331;45.412;10.992;2022-11-20T04:31:38;100285.78;;;6.18;100.00
23433;BME280;41331;45.412;10.992;2022-11-20T04:34:07;100283.25;;;6.21;100.00
23433;BME280;41331;45.412;10.992;2022-11-20T04:36:34;100281.19;;;6.18;100.00
23433;BME280;41331;45.412;10.992;2022-11-20T04:39:05;100285.78;;;6.18;100.00
23433;BME280;41331;45.412;10.992;2022-11-20T04:41:35;100280.16;;;6.28;100.00
23433;BME280;41331;45.412;10.992;2022-11-20T04:44:05;100278.66;;;6.22;100.00
23433;BME280;41331;45.412;10.992;2022-11-20T04:46:41;100259.09;;;6.03;100.00
23433;BME280;41331;45.412;10.992;2022-11-20T04:49:14;100285.38;;;6.11;100.00
23433;BME280;41331;45.412;10.992;2022-11-20T04:51:41;100284.38;;;6.07;100.00
23433;BME280;41331;45.412;10.992;2022-11-20T04:54:10;100289.09;;;6.15;100.00
23433;BME280;41331;45.412;10.992;2022-11-20T04:56:38;100279.66;;;6.12;100.00
23433;BME280;41331;45.412;10.992;2022-11-20T04:59:05;100290.19;;;6.14;100.00
23433;BME280;41331;45.412;10.992;2022-11-20T05:01:34;100272.38;;;5.99;100.00
23433;BME280;41331;45.412;10.992;2022-11-20T05:04:01;100288.69;;;6.08;100.00
23433;BME280;41331;45.412;10.992;2022-11-20T05:06:28;100294.91;;;6.08;100.00
23433;BME280;41331;45.412;10.992;2022-11-20T05:08:56;100303.19;;;6.12;100.00
23433;BME280;41331;45.412;10.992;2022-11-20T05:11:23;100300.69;;;6.02;100.00
23433;BME280;41331;45.412;10.992;2022-11-20T05:13:51;100300.31;;;5.94;100.00
23433;BME280;41331;45.412;10.992;2022-11-20T05:16:21;100306.81;;;5.93;100.00
23433;BME280;41331;45.412;10.992;2022-11-20T05:18:52;100302.69;;;5.96;100.00
23433;BME280;41331;45.412;10.992;2022-11-20T05:21:21;100304.81;;;5.99;100.00
23433;BME280;41331;45.412;10.992;2022-11-20T05:23:49;100294.94;;;5.62;100.00
23433;BME280;41331;45.412;10.992;2022-11-20T05:26:22;100309.75;;;5.64;100.00
23433;BME280;41331;45.412;10.992;2022-11-20T05:28:50;100307.63;;;5.61;100.00
23433;BME280;41331;45.412;10.992;2022-11-20T05:31:21;100313.25;;;5.65;100.00
23433;BME280;41331;45.412;10.992;2022-11-20T05:33:55;100309.28;;;5.62;100.00
23433;BME280;41331;45.412;10.992;2022-11-20T05:36:23;100311.38;;;5.79;100.00
23433;BME280;41331;45.412;10.992;2022-11-20T05:38:51;100314.47;;;5.86;100.00
23433;BME280;41331;45.412;10.992;2022-11-20T05:41:26;100320.59;;;5.78;100.00
23433;BME280;41331;45.412;10.992;2022-11-20T05:43:55;100320.25;;;5.66;100.00
23433;BME280;41331;45.412;10.992;2022-11-20T05:46:23;100322.34;;;5.55;100.00
23433;BME280;41331;45.412;10.992;2022-11-20T05:48:56;100329.34;;;5.56;100.00
23433;BME280;41331;45.412;10.992;2022-11-20T05:51:24;100334.63;;;5.61;100.00
23433;BME280;41331;45.412;10.992;2022-11-20T05:53:52;100344.66;;;5.61;100.00
23433;BME280;41331;45.412;10.992;2022-11-20T05:56:21;100342.16;;;5.64;100.00
23433;BME280;41331;45.412;10.992;2022-11-20T05:58:49;100351.28;;;5.68;100.00
23433;BME280;41331;45.412;10.992;2022-11-20T06:01:21;100346.97;;;5.67;100.00
23433;BME280;41331;45.412;10.992;2022-11-20T06:03:51;100350.38;;;5.73;100.00
23433;BME280;41331;45.412;10.992;2022-11-20T06:06:19;100357.97;;;5.71;100.00
23433;BME280;41331;45.412;10.992;2022-11-20T06:08:47;100354.50;;;5.52;100.00
23433;BME280;41331;45.412;10.992;2022-11-20T06:11:16;100349.91;;;5.52;100.00
23433;BME280;41331;45.412;10.992;2022-11-20T06:13:43;100354.03;;;5.50;100.00
23433;BME280;41331;45.412;10.992;2022-11-20T06:16:14;100355.63;;;5.51;100.00
23433;BME280;41331;45.412;10.992;2022-11-20T06:18:42;100366.53;;;5.59;100.00
23433;BME280;41331;45.412;10.992;2022-11-20T06:21:19;100364.56;;;5.65;100.00
23433;BME280;41331;45.412;10.992;2022-11-20T06:23:48;100370.53;;;5.62;100.00
23433;BME280;41331;45.412;10.992;2022-11-20T06:26:20;100369.25;;;5.59;100.00
23433;BME280;41331;45.412;10.992;2022-11-20T06:28:48;100376.47;;;5.64;100.00
23433;BME280;41331;45.412;10.992;2022-11-20T06:31:20;100380.53;;;5.61;100.00
23433;BME280;41331;45.412;10.992;2022-11-20T06:33:48;100376.84;;;5.57;100.00
23433;BME280;41331;45.412;10.992;2022-11-20T06:36:17;100381.94;;;5.59;100.00
23433;BME280;41331;45.412;10.992;2022-11-20T06:38:45;100376.03;;;5.57;100.00
23433;BME280;41331;45.412;10.992;2022-11-20T06:41:17;100383.69;;;5.68;100.00
23433;BME280;41331;45.412;10.992;2022-11-20T06:43:46;100386.69;;;5.81;100.00
23433;BME280;41331;45.412;10.992;2022-11-20T06:46:15;100386.38;;;5.82;100.00
23433;BME280;41331;45.412;10.992;2022-11-20T06:48:45;100385.50;;;5.87;100.00
23433;BME280;41331;45.412;10.992;2022-11-20T06:51:13;100385.16;;;5.93;100.00
23433;BME280;41331;45.412;10.992;2022-11-20T06:53:40;100396.56;;;6.04;100.00
23433;BME280;41331;45.412;10.992;2022-11-20T06:56:08;100396.97;;;6.11;100.00
23433;BME280;41331;45.412;10.992;2022-11-20T06:58:36;100406.78;;;6.21;100.00
23433;BME280;41331;45.412;10.992;2022-11-20T07:01:06;100405.47;;;6.46;100.00
23433;BME280;41331;45.412;10.992;2022-11-20T07:03:34;100406.13;;;6.93;98.18
23433;BME280;41331;45.412;10.992;2022-11-20T07:06:03;100410.84;;;7.23;94.56
23433;BME280;41331;45.412;10.992;2022-11-20T07:08:31;100410.84;;;7.46;90.30
23433;BME280;41331;45.412;10.992;2022-11-20T07:11:00;100403.41;;;7.51;86.89
23433;BME280;41331;45.412;10.992;2022-11-20T07:13:28;100416.28;;;7.46;85.93
23433;BME280;41331;45.412;10.992;2022-11-20T07:16:00;100404.75;;;7.18;86.97
23433;BME280;41331;45.412;10.992;2022-11-20T07:18:29;100421.72;;;7.32;87.38
23433;BME280;41331;45.412;10.992;2022-11-20T07:21:00;100424.47;;;7.55;85.58
23433;BME280;41331;45.412;10.992;2022-11-20T07:23:27;100430.22;;;7.17;84.60
23433;BME280;41331;45.412;10.992;2022-11-20T07:25:55;100435.97;;;7.01;86.06
23433;BME280;41331;45.412;10.992;2022-11-20T07:28:22;100428.38;;;6.90;87.26
23433;BME280;41331;45.412;10.992;2022-11-20T07:30:51;100439.00;;;6.86;87.27
23433;BME280;41331;45.412;10.992;2022-11-20T07:33:19;100438.19;;;6.86;87.66
23433;BME280;41331;45.412;10.992;2022-11-20T07:35:47;100440.09;;;6.85;87.33
23433;BME280;41331;45.412;10.992;2022-11-20T07:38:14;100440.31;;;6.75;86.60
23433;BME280;41331;45.412;10.992;2022-11-20T07:40:42;100434.13;;;6.74;86.22
23433;BME280;41331;45.412;10.992;2022-11-20T07:43:09;100432.78;;;6.86;85.27
23433;BME280;41331;45.412;10.992;2022-11-20T07:45:36;100443.81;;;6.89;85.37
23433;BME280;41331;45.412;10.992;2022-11-20T07:48:04;100435.69;;;6.89;85.42
23433;BME280;41331;45.412;10.992;2022-11-20T07:50:31;100439.06;;;7.09;83.91
23433;BME280;41331;45.412;10.992;2022-11-20T07:53:03;100442.66;;;7.18;84.13
23433;BME280;41331;45.412;10.992;2022-11-20T07:55:32;100437.97;;;7.32;83.62
23433;BME280;41331;45.412;10.992;2022-11-20T07:57:59;100438.28;;;7.31;82.02
23433;BME280;41331;45.412;10.992;2022-11-20T08:00:27;100450.66;;;7.23;82.63
23433;BME280;41331;45.412;10.992;2022-11-20T08:02:55;100453.41;;;7.32;82.76
23433;BME280;41331;45.412;10.992;2022-11-20T08:05:23;100445.88;;;7.42;81.70
23433;BME280;41331;45.412;10.992;2022-11-20T08:07:51;100455.97;;;7.50;80.98
23433;BME280;41331;45.412;10.992;2022-11-20T08:10:18;100446.13;;;7.55;81.48
23433;BME280;41331;45.412;10.992;2022-11-20T08:12:47;100456.28;;;7.49;80.10
23433;BME280;41331;45.412;10.992;2022-11-20T08:15:34;100457.63;;;7.60;80.88
23433;BME280;41331;45.412;10.992;2022-11-20T08:18:10;100462.34;;;7.68;81.31
23433;BME280;41331;45.412;10.992;2022-11-20T08:21:16;100461.38;;;7.73;79.23
23433;BME280;41331;45.412;10.992;2022-11-20T08:23:43;100463.03;;;7.83;78.57
23433;BME280;41331;45.412;10.992;2022-11-20T08:26:10;100465.41;;;7.75;78.40
23433;BME280;41331;45.412;10.992;2022-11-20T08:28:38;100455.63;;;7.88;79.19
23433;BME280;41331;45.412;10.992;2022-11-20T08:31:05;100461.44;;;8.04;79.01
23433;BME280;41331;45.412;10.992;2022-11-20T08:33:33;100460.44;;;8.00;79.41
23433;BME280;41331;45.412;10.992;2022-11-20T08:36:01;100448.69;;;8.04;76.61
23433;BME280;41331;45.412;10.992;2022-11-20T08:38:30;100459.13;;;8.20;75.31
23433;BME280;41331;45.412;10.992;2022-11-20T08:40:58;100451.47;;;8.22;74.79
23433;BME280;41331;45.412;10.992;2022-11-20T08:43:44;100467.34;;;8.37;74.96
23433;BME280;41331;45.412;10.992;2022-11-20T08:46:12;100477.31;;;8.50;74.25
23433;BME280;41331;45.412;10.992;2022-11-20T08:48:41;100476.84;;;8.57;73.15
23433;BME280;41331;45.412;10.992;2022-11-20T08:51:08;100479.44;;;8.62;73.02
23433;BME280;41331;45.412;10.992;2022-11-20T08:53:37;100470.84;;;8.69;74.80
23433;BME280;41331;45.412;10.992;2022-11-20T08:56:05;100481.28;;;8.84;74.35
23433;BME280;41331;45.412;10.992;2022-11-20T08:58:33;100487.34;;;8.98;73.03
23433;BME280;41331;45.412;10.992;2022-11-20T09:01:21;100491.56;;;9.22;71.99
23433;BME280;41331;45.412;10.992;2022-11-20T09:03:49;100488.56;;;9.49;71.03
23433;BME280;41331;45.412;10.992;2022-11-20T09:06:17;100491.09;;;9.72;70.27
23433;BME280;41331;45.412;10.992;2022-11-20T09:08:44;100494.09;;;9.96;69.67
23433;BME280;41331;45.412;10.992;2022-11-20T09:11:12;100493.75;;;10.06;69.35
23433;BME280;41331;45.412;10.992;2022-11-20T09:13:39;100498.22;;;10.20;68.63
23433;BME280;41331;45.412;10.992;2022-11-20T09:16:08;100495.81;;;10.18;68.49
23433;BME280;41331;45.412;10.992;2022-11-20T09:18:36;100495.66;;;10.32;66.62
23433;BME280;41331;45.412;10.992;2022-11-20T09:21:09;100496.41;;;10.50;65.39
23433;BME280;41331;45.412;10.992;2022-11-20T09:23:40;100497.41;;;10.75;64.85
23433;BME280;41331;45.412;10.992;2022-11-20T09:26:13;100492.84;;;10.87;64.79
23433;BME280;41331;45.412;10.992;2022-11-20T09:28:41;100484.78;;;11.00;64.42
23433;BME280;41331;45.412;10.992;2022-11-20T09:31:17;100483.38;;;10.94;64.35
23433;BME280;41331;45.412;10.992;2022-11-20T09:33:47;100481.50;;;10.85;64.28
23433;BME280;41331;45.412;10.992;2022-11-20T09:36:14;100487.22;;;10.93;64.88
23433;BME280;41331;45.412;10.992;2022-11-20T09:38:43;100496.91;;;11.11;64.29
23433;BME280;41331;45.412;10.992;2022-11-20T09:52:33;100493.84;;;11.33;57.86
23433;BME280;41331;45.412;10.992;2022-11-20T09:55:08;100482.69;;;11.47;58.97
23433;BME280;41331;45.412;10.992;2022-11-20T09:57:40;100487.31;;;11.67;61.85
23433;BME280;41331;45.412;10.992;2022-11-20T10:00:11;100479.41;;;11.75;62.28
23433;BME280;41331;45.412;10.992;2022-11-20T10:02:55;100487.25;;;11.76;61.88
23433;BME280;41331;45.412;10.992;2022-11-20T10:05:44;100473.84;;;11.71;62.18
23433;BME280;41331;45.412;10.992;2022-11-20T10:10:54;100482.88;;;11.84;63.79
23433;BME280;41331;45.412;10.992;2022-11-20T10:16:46;100470.75;;;11.93;65.32
23433;BME280;41331;45.412;10.992;2022-11-20T10:25:19;100463.06;;;12.08;66.78
23433;BME280;41331;45.412;10.992;2022-11-20T10:30:41;100473.84;;;12.04;67.92
23433;BME280;41331;45.412;10.992;2022-11-20T10:33:17;100477.63;;;12.12;68.31
23433;BME280;41331;45.412;10.992;2022-11-20T10:35:59;100472.31;;;12.28;68.72
23433;BME280;41331;45.412;10.992;2022-11-20T10:38:45;100465.00;;;12.19;68.71
23433;BME280;41331;45.412;10.992;2022-11-20T10:41:30;100466.63;;;12.33;69.81
23433;BME280;41331;45.412;10.992;2022-11-20T10:44:27;100464.72;;;12.46;68.44
23433;BME280;41331;45.412;10.992;2022-11-20T10:47:18;100449.34;;;12.29;67.69
23433;BME280;41331;45.412;10.992;2022-11-20T10:49:50;100454.59;;;12.46;68.82
23433;BME280;41331;45.412;10.992;2022-11-20T11:01:20;100442.09;;;12.57;68.84
23433;BME280;41331;45.412;10.992;2022-11-20T11:03:51;100450.50;;;12.64;70.05
23433;BME280;41331;45.412;10.992;2022-11-20T11:06:35;100449.13;;;12.58;69.69
23433;BME280;41331;45.412;10.992;2022-11-20T11:09:21;100448.31;;;12.70;69.10
23433;BME280;41331;45.412;10.992;2022-11-20T11:11:51;100447.75;;;12.64;69.37
23433;BME280;41331;45.412;10.992;2022-11-20T11:14:18;100438.09;;;12.67;67.94
23433;BME280;41331;45.412;10.992;2022-11-20T11:16:55;100443.78;;;12.74;68.19
23433;BME280;41331;45.412;10.992;2022-11-20T11:19:23;100433.31;;;12.64;68.26
23433;BME280;41331;45.412;10.992;2022-11-20T11:21:56;100429.78;;;12.63;67.98
23433;BME280;41331;45.412;10.992;2022-11-20T11:24:27;100420.91;;;12.54;68.64
23433;BME280;41331;45.412;10.992;2022-11-20T11:27:14;100429.34;;;12.74;69.54
23433;BME280;41331;45.412;10.992;2022-11-20T11:29:46;100426.06;;;12.80;70.01
23433;BME280;41331;45.412;10.992;2022-11-20T11:32:18;100424.91;;;12.81;70.94
23433;BME280;41331;45.412;10.992;2022-11-20T11:35:05;100419.75;;;12.92;70.13
23433;BME280;41331;45.412;10.992;2022-11-20T11:37:35;100421.69;;;12.91;71.59
23433;BME280;41331;45.412;10.992;2022-11-20T11:40:05;100424.06;;;12.93;71.38
23433;BME280;41331;45.412;10.992;2022-11-20T11:42:54;100426.09;;;13.08;73.11
23433;BME280;41331;45.412;10.992;2022-11-20T11:45:24;100420.97;;;13.07;73.60
23433;BME280;41331;45.412;10.992;2022-11-20T11:47:52;100420.50;;;13.17;75.98
23433;BME280;41331;45.412;10.992;2022-11-20T11:50:26;100410.94;;;13.23;77.41
23433;BME280;41331;45.412;10.992;2022-11-20T11:53:14;100403.91;;;13.22;75.80
23433;BME280;41331;45.412;10.992;2022-11-20T11:58:49;100413.59;;;13.47;74.58
23433;BME280;41331;45.412;10.992;2022-11-20T12:04:54;100412.41;;;13.33;75.74
23433;BME280;41331;45.412;10.992;2022-11-20T12:07:29;100417.06;;;13.32;76.81
23433;BME280;41331;45.412;10.992;2022-11-20T12:13:00;100406.88;;;13.45;77.83
23433;BME280;41331;45.412;10.992;2022-11-20T12:15:30;100407.22;;;13.43;77.06
23433;BME280;41331;45.412;10.992;2022-11-20T12:17:58;100406.00;;;13.41;77.01
23433;BME280;41331;45.412;10.992;2022-11-20T12:20:35;100395.56;;;13.31;78.05
23433;BME280;41331;45.412;10.992;2022-11-20T12:26:07;100397.03;;;13.28;77.21
23433;BME280;41331;45.412;10.992;2022-11-20T12:28:52;100401.47;;;13.20;77.06
23433;BME280;41331;45.412;10.992;2022-11-20T12:39:29;100381.28;;;12.97;77.84
23433;BME280;41331;45.412;10.992;2022-11-20T12:45:07;100391.84;;;13.11;77.43
23433;BME280;41331;45.412;10.992;2022-11-20T12:51:25;100384.25;;;12.92;75.55
23433;BME280;41331;45.412;10.992;2022-11-20T12:57:41;100376.53;;;12.82;74.25
23433;BME280;41331;45.412;10.992;2022-11-20T13:00:14;100378.47;;;12.81;74.93
23433;BME280;41331;45.412;10.992;2022-11-20T13:06:18;100385.97;;;12.84;73.77
23433;BME280;41331;45.412;10.992;2022-11-20T13:08:40;100387.09;;;12.83;73.10
23433;BME280;41331;45.412;10.992;2022-11-20T13:14:00;100384.03;;;12.85;74.53
23433;BME280;41331;45.412;10.992;2022-11-20T13:16:46;100384.84;;;12.85;74.28
23433;BME280;41331;45.412;10.992;2022-11-20T13:19:15;100379.50;;;12.77;75.95
23433;BME280;41331;45.412;10.992;2022-11-20T13:21:49;100378.47;;;12.69;74.56
23433;BME280;41331;45.412;10.992;2022-11-20T13:29:36;100375.31;;;12.55;70.79
23433;BME280;41331;45.412;10.992;2022-11-20T13:34:59;100359.94;;;12.62;69.07
23433;BME280;41331;45.412;10.992;2022-11-20T13:42:43;100347.91;;;12.51;68.65
23433;BME280;41331;45.412;10.992;2022-11-20T13:45:29;100348.81;;;12.43;69.51
23433;BME280;41331;45.412;10.992;2022-11-20T13:48:02;100348.16;;;12.34;69.96
23433;BME280;41331;45.412;10.992;2022-11-20T13:50:46;100353.84;;;12.41;70.41
23433;BME280;41331;45.412;10.992;2022-11-20T13:59:57;100363.38;;;12.35;70.68
23433;BME280;41331;45.412;10.992;2022-11-20T14:02:27;100363.84;;;12.37;70.43
23433;BME280;41331;45.412;10.992;2022-11-20T14:04:59;100360.19;;;12.33;71.01
23433;BME280;41331;45.412;10.992;2022-11-20T14:07:38;100356.69;;;12.32;69.45
23433;BME280;41331;45.412;10.992;2022-11-20T14:10:38;100361.00;;;12.33;69.04
23433;BME280;41331;45.412;10.992;2022-11-20T14:13:17;100363.84;;;12.25;69.71
23433;BME280;41331;45.412;10.992;2022-11-20T14:15:45;100351.34;;;12.11;70.29
23433;BME280;41331;45.412;10.992;2022-11-20T14:18:19;100363.03;;;12.24;70.77
23433;BME280;41331;45.412;10.992;2022-11-20T14:20:49;100354.97;;;12.15;71.30
23433;BME280;41331;45.412;10.992;2022-11-20T14:23:26;100356.44;;;12.13;73.30
23433;BME280;41331;45.412;10.992;2022-11-20T14:25:56;100357.94;;;12.10;72.48
23433;BME280;41331;45.412;10.992;2022-11-20T14:28:29;100340.63;;;11.94;72.97
23433;BME280;41331;45.412;10.992;2022-11-20T14:30:57;100357.25;;;12.01;72.38
23433;BME280;41331;45.412;10.992;2022-11-20T14:33:28;100352.94;;;12.00;72.88
23433;BME280;41331;45.412;10.992;2022-11-20T14:35:57;100347.69;;;12.07;72.42
23433;BME280;41331;45.412;10.992;2022-11-20T14:38:27;100349.38;;;12.00;71.21